createdAt,value
2022-11-16T00:00:47.778Z,2.6
2022-11-16T00:01:57.532Z,4.5
2022-11-16T00:03:06.188Z,2.1
2022-11-16T00:04:13.836Z,3.7
2022-11-16T00:05:28.086Z,3.5
2022-11-16T00:06:33.228Z,3.3
2022-11-16T00:07:40.890Z,5.7
2022-11-16T00:08:50.590Z,5.7
2022-11-16T00:10:00.264Z,4.7
2022-11-16T00:11:09.973Z,5
2022-11-16T00:12:19.659Z,2.6
2022-11-16T00:13:28.323Z,4.3
2022-11-16T00:14:38.983Z,5.4
2022-11-16T00:15:48.657Z,2.9
2022-11-16T00:16:56.340Z,3.9
2022-11-16T00:18:06.026Z,4.7
2022-11-16T00:19:14.715Z,3.8
2022-11-16T00:20:23.376Z,4.3
2022-11-16T00:21:33.078Z,4.5
2022-11-16T00:22:40.761Z,3.6
2022-11-16T00:23:50.447Z,3.9
2022-11-16T00:24:59.128Z,4.2
2022-11-16T00:26:06.786Z,4
2022-11-16T00:27:16.491Z,3.3
2022-11-16T00:28:25.206Z,4.6
2022-11-16T00:29:33.896Z,4.7
2022-11-16T00:30:43.572Z,4
2022-11-16T00:31:52.253Z,4.2
2022-11-16T00:33:01.920Z,4
2022-11-16T00:34:11.614Z,2.1
2022-11-16T00:35:20.286Z,3.6
2022-11-16T00:36:29.957Z,3.8
2022-11-16T00:37:38.623Z,3
2022-11-16T00:38:47.295Z,4
2022-11-16T00:39:55.999Z,5
2022-11-16T00:41:04.666Z,3.3
2022-11-16T00:42:14.340Z,3
2022-11-16T00:43:23.019Z,4.3
2022-11-16T00:44:31.675Z,3.9
2022-11-16T00:45:41.390Z,3.1
2022-11-16T00:46:51.057Z,2.8
2022-11-16T00:48:00.931Z,2.4
2022-11-16T00:49:10.391Z,3.1
2022-11-16T00:50:19.059Z,4.2
2022-11-16T00:51:28.806Z,3
2022-11-16T00:52:37.458Z,3.6
2022-11-16T00:53:45.117Z,4.9
2022-11-16T00:54:54.784Z,2
2022-11-16T00:56:04.497Z,4.4
2022-11-16T00:57:13.204Z,3.6
2022-11-16T00:58:22.877Z,3.5
2022-11-16T00:59:32.564Z,4.2
2022-11-16T01:00:42.217Z,3.7
2022-11-16T01:01:50.946Z,4.3
2022-11-16T01:03:00.600Z,6.8
2022-11-16T01:04:10.297Z,4.9
2022-11-16T01:05:18.956Z,4.4
2022-11-16T01:06:27.632Z,5
2022-11-16T01:07:36.537Z,3.2
2022-11-16T01:08:44.162Z,2.9
2022-11-16T01:09:53.854Z,4.2
2022-11-16T01:11:02.517Z,5
2022-11-16T01:12:10.190Z,4.5
2022-11-16T01:13:19.909Z,4.9
2022-11-16T01:14:28.605Z,2.9
2022-11-16T01:15:38.304Z,2.5
2022-11-16T01:16:47.949Z,3.7
2022-11-16T01:17:54.592Z,3.3
2022-11-16T01:19:04.293Z,3.5
2022-11-16T01:20:13.013Z,6.3
2022-11-16T01:21:22.676Z,4.5
2022-11-16T01:22:31.342Z,4.4
2022-11-16T01:23:40.007Z,5
2022-11-16T01:24:49.675Z,3.2
2022-11-16T01:25:58.368Z,2.9
2022-11-16T01:27:08.053Z,4.9
2022-11-16T01:28:16.731Z,3.2
2022-11-16T01:29:26.425Z,3.3
2022-11-16T01:30:36.087Z,4.1
2022-11-16T01:31:44.800Z,5
2022-11-16T01:32:53.449Z,4.4
2022-11-16T01:34:03.132Z,2.9
2022-11-16T01:35:11.800Z,5.7
2022-11-16T01:36:20.484Z,4
2022-11-16T01:37:29.168Z,3.4
2022-11-16T01:38:37.154Z,4.2
2022-11-16T01:39:46.491Z,4.4
2022-11-16T01:40:56.149Z,3.3
2022-11-16T01:42:04.813Z,5.2
2022-11-16T01:43:14.515Z,2.8
2022-11-16T01:44:24.179Z,3.5
2022-11-16T01:45:33.840Z,3.8
2022-11-16T01:46:42.527Z,3.1
2022-11-16T01:47:50.240Z,2.3
2022-11-16T01:48:59.877Z,3.5
2022-11-16T01:50:08.543Z,3
2022-11-16T01:51:16.217Z,3.6
2022-11-16T01:52:25.054Z,5.3
2022-11-16T01:53:33.723Z,4.1
2022-11-16T01:54:42.530Z,4.2
2022-11-16T01:55:51.231Z,2.8
2022-11-16T01:56:58.881Z,3.7
2022-11-16T01:58:08.546Z,3.8
2022-11-16T01:59:17.198Z,4.7
2022-11-16T02:00:24.870Z,4.1
2022-11-16T02:01:34.585Z,4.1
2022-11-16T02:02:44.224Z,3.9
2022-11-16T02:03:53.915Z,4.8
2022-11-16T02:05:03.571Z,3.5
2022-11-16T02:06:12.377Z,3.3
2022-11-16T02:07:22.101Z,6.7
2022-11-16T02:08:31.145Z,4.1
2022-11-16T02:09:38.441Z,3.1
2022-11-16T02:10:48.112Z,3.6
2022-11-16T02:11:56.795Z,4.6
2022-11-16T02:13:05.459Z,3.2
2022-11-16T02:14:14.138Z,3.9
2022-11-16T02:15:22.833Z,3.2
2022-11-16T02:16:32.569Z,3.6
2022-11-16T02:17:42.235Z,6.3
2022-11-16T02:18:49.869Z,5.2
2022-11-16T02:19:59.652Z,3.5
2022-11-16T02:21:08.319Z,3.7
2022-11-16T02:22:17.024Z,4.3
2022-11-16T02:23:25.716Z,3.1
2022-11-16T02:24:34.397Z,3.9
2022-11-16T02:25:44.069Z,4.4
2022-11-16T02:26:53.744Z,3.7
2022-11-16T02:28:02.421Z,4.4
2022-11-16T02:29:12.125Z,3.4
2022-11-16T02:30:20.795Z,4.8
2022-11-16T02:31:29.468Z,5.7
2022-11-16T02:32:38.158Z,4.9
2022-11-16T02:33:46.838Z,3.2
2022-11-16T02:34:55.536Z,5
2022-11-16T02:36:04.233Z,4
2022-11-16T02:37:12.896Z,4.4
2022-11-16T02:38:22.587Z,4.3
2022-11-16T02:39:32.276Z,6.4
2022-11-16T02:40:41.970Z,3.3
2022-11-16T02:41:51.637Z,3.1
2022-11-16T02:43:00.303Z,4.7
2022-11-16T02:44:10.025Z,5.4
2022-11-16T02:45:18.788Z,5.9
2022-11-16T02:46:27.469Z,5
2022-11-16T02:47:37.160Z,4.1
2022-11-16T02:48:45.812Z,2.9
2022-11-16T02:49:54.532Z,3.6
2022-11-16T02:51:04.195Z,4.8
2022-11-16T02:52:15.407Z,5.5
2022-11-16T02:53:25.571Z,5.2
2022-11-16T02:54:34.238Z,4.4
2022-11-16T02:55:42.917Z,5.2
2022-11-16T02:56:52.583Z,4.4
2022-11-16T02:58:01.395Z,4.1
2022-11-16T02:59:14.131Z,6
2022-11-16T03:00:21.795Z,5.5
2022-11-16T03:01:31.573Z,4.3
2022-11-16T03:02:41.204Z,4.3
2022-11-16T03:03:50.895Z,3.9
2022-11-16T03:05:00.559Z,6.6
2022-11-16T03:06:10.258Z,5.1
2022-11-16T03:07:18.988Z,5.1
2022-11-16T03:08:28.637Z,4.5
2022-11-16T03:09:37.323Z,4.7
2022-11-16T03:10:46.028Z,5.4
2022-11-16T03:11:54.694Z,6.5
2022-11-16T03:13:03.397Z,5.7
2022-11-16T03:14:11.044Z,4.3
2022-11-16T03:15:20.739Z,4.4
2022-11-16T03:16:29.399Z,7
2022-11-16T03:17:37.073Z,6.3
2022-11-16T03:18:46.737Z,5.2
2022-11-16T03:19:55.392Z,4.6
2022-11-16T03:21:05.071Z,4.2
2022-11-16T03:22:13.730Z,4.2
2022-11-16T03:23:21.413Z,4.7
2022-11-16T03:24:31.061Z,5
2022-11-16T03:25:40.710Z,4.9
2022-11-16T03:26:49.403Z,6.3
2022-11-16T03:27:59.088Z,5.4
2022-11-16T03:29:07.755Z,6.7
2022-11-16T03:30:21.105Z,5.4
2022-11-16T03:31:28.135Z,5
2022-11-16T03:32:35.846Z,5.8
2022-11-16T03:33:45.582Z,6.8
2022-11-16T03:34:54.238Z,6.2
2022-11-16T03:36:03.921Z,4.8
2022-11-16T03:37:13.594Z,5.2
2022-11-16T03:38:22.265Z,6.4
2022-11-16T03:39:31.959Z,4.7
2022-11-16T03:40:41.607Z,4.5
2022-11-16T03:41:49.249Z,5.2
2022-11-16T03:42:58.923Z,3.6
2022-11-16T03:44:07.601Z,4.5
2022-11-16T03:45:16.256Z,4
2022-11-16T03:46:25.917Z,4.8
2022-11-16T03:47:34.587Z,6.5
2022-11-16T03:48:43.268Z,4.5
2022-11-16T03:49:52.944Z,4.3
2022-11-16T03:50:59.601Z,4.6
2022-11-16T03:52:08.252Z,5.2
2022-11-16T03:53:16.905Z,5
2022-11-16T03:54:26.585Z,5.9
2022-11-16T03:55:35.282Z,5.7
2022-11-16T03:56:44.931Z,4.8
2022-11-16T03:57:54.594Z,4.8
2022-11-16T03:59:03.239Z,4.4
2022-11-16T04:00:12.922Z,6.1
2022-11-16T04:01:21.755Z,5.6
2022-11-16T04:02:30.367Z,4.1
2022-11-16T04:03:40.035Z,5.8
2022-11-16T04:04:48.715Z,4.3
2022-11-16T04:05:57.341Z,7
2022-11-16T04:07:07.076Z,4.5
2022-11-16T04:08:15.730Z,5.5
2022-11-16T04:09:24.398Z,5.3
2022-11-16T04:10:33.067Z,6.2
2022-11-16T04:11:42.752Z,5.1
2022-11-16T04:12:52.434Z,5.1
2022-11-16T04:14:05.255Z,5
2022-11-16T04:15:10.733Z,5.1
2022-11-16T04:16:20.414Z,7.2
2022-11-16T04:17:29.093Z,6
2022-11-16T04:18:37.813Z,6.6
2022-11-16T04:19:47.499Z,6.1
2022-11-16T04:20:56.155Z,4
2022-11-16T04:22:05.815Z,4.5
2022-11-16T04:23:14.467Z,5.6
2022-11-16T04:24:24.190Z,4.6
2022-11-16T04:25:33.858Z,5.1
2022-11-16T04:26:42.638Z,4.6
2022-11-16T04:27:52.309Z,4.3
2022-11-16T04:29:01.948Z,4
2022-11-16T04:30:09.640Z,7.4
2022-11-16T04:31:19.289Z,3.3
2022-11-16T04:32:27.998Z,4.3
2022-11-16T04:33:35.679Z,4.6
2022-11-16T04:34:45.408Z,7.4
2022-11-16T04:35:54.077Z,5
2022-11-16T04:37:02.741Z,6.2
2022-11-16T04:38:11.395Z,5.5
2022-11-16T04:39:19.048Z,5.7
2022-11-16T04:40:28.707Z,9.1
2022-11-16T04:41:37.522Z,3.7
2022-11-16T04:42:46.270Z,4.7
2022-11-16T04:43:55.960Z,4.4
2022-11-16T04:45:04.591Z,5.9
2022-11-16T04:46:13.257Z,5.3
2022-11-16T04:47:21.949Z,4.6
2022-11-16T04:48:29.599Z,5
2022-11-16T04:49:39.274Z,5.9
2022-11-16T04:50:48.932Z,5.9
2022-11-16T04:51:56.576Z,4.6
2022-11-16T04:53:05.265Z,4.6
2022-11-16T04:54:13.950Z,6
2022-11-16T04:55:22.586Z,5.7
2022-11-16T04:56:30.248Z,4.3
2022-11-16T04:57:38.903Z,4.9
2022-11-16T04:58:48.677Z,4.4
2022-11-16T04:59:57.364Z,4.6
2022-11-16T05:01:07.016Z,5.4
2022-11-16T05:02:16.748Z,5.8
2022-11-16T05:03:26.411Z,5.2
2022-11-16T05:04:35.217Z,5
2022-11-16T05:05:44.884Z,7
2022-11-16T05:06:53.599Z,4.5
2022-11-16T05:08:03.201Z,6
2022-11-16T05:09:11.865Z,5.8
2022-11-16T05:10:19.556Z,5.5
2022-11-16T05:11:28.222Z,6
2022-11-16T05:12:36.935Z,3.9
2022-11-16T05:13:46.618Z,5.8
2022-11-16T05:14:56.287Z,4
2022-11-16T05:16:05.007Z,4.8
2022-11-16T05:17:14.661Z,3.2
2022-11-16T05:18:23.335Z,5.5
2022-11-16T05:19:32.006Z,4.1
2022-11-16T05:20:41.651Z,3.8
2022-11-16T05:21:50.336Z,4.9
2022-11-16T05:22:58.992Z,7.9
2022-11-16T05:24:07.649Z,4.4
2022-11-16T05:25:15.331Z,4.9
2022-11-16T05:26:24.985Z,6.3
2022-11-16T05:27:34.676Z,6.1
2022-11-16T05:28:43.346Z,3.1
2022-11-16T05:29:52.992Z,4.6
2022-11-16T05:31:01.650Z,5.7
2022-11-16T05:32:11.347Z,3.5
2022-11-16T05:33:21.011Z,3.2
2022-11-16T05:34:29.685Z,7
2022-11-16T05:35:39.382Z,4.6
2022-11-16T05:36:49.082Z,5.3
2022-11-16T05:37:56.735Z,4.6
2022-11-16T05:39:05.668Z,4.8
2022-11-16T05:40:15.394Z,6.7
2022-11-16T05:41:24.040Z,5.9
2022-11-16T05:42:32.706Z,4.2
2022-11-16T05:43:41.396Z,4.8
2022-11-16T05:44:51.056Z,3.9
2022-11-16T05:46:00.719Z,3.5
2022-11-16T05:47:08.380Z,4.6
2022-11-16T05:48:18.088Z,5
2022-11-16T05:49:27.738Z,4.8
2022-11-16T05:50:42.478Z,4.1
2022-11-16T05:51:47.123Z,4.4
2022-11-16T05:52:55.786Z,5.8
2022-11-16T05:54:04.440Z,4.5
2022-11-16T05:55:13.091Z,4.4
2022-11-16T05:56:22.830Z,5.2
2022-11-16T05:57:31.434Z,5
2022-11-16T05:58:40.088Z,5.7
2022-11-16T05:59:49.781Z,4.8
2022-11-16T06:00:58.426Z,4.3
2022-11-16T06:02:08.237Z,6.9
2022-11-16T06:03:16.904Z,5.5
2022-11-16T06:04:26.567Z,6.1
2022-11-16T06:05:40.157Z,3.3
2022-11-16T06:06:45.845Z,4.9
2022-11-16T06:07:55.655Z,3.6
2022-11-16T06:09:05.317Z,5
2022-11-16T06:10:14.979Z,4.3
2022-11-16T06:11:24.636Z,5.7
2022-11-16T06:12:32.326Z,4.5
2022-11-16T06:13:40.979Z,6.9
2022-11-16T06:14:50.639Z,6.2
2022-11-16T06:15:59.564Z,3.3
2022-11-16T06:17:07.969Z,7.4
2022-11-16T06:18:17.640Z,4.8
2022-11-16T06:19:31.155Z,4.8
2022-11-16T06:20:35.936Z,6.3
2022-11-16T06:21:46.589Z,7.1
2022-11-16T06:22:56.350Z,6.5
2022-11-16T06:24:05.929Z,4.9
2022-11-16T06:25:14.601Z,6.5
2022-11-16T06:26:22.244Z,9.9
2022-11-16T06:27:31.914Z,7.9
2022-11-16T06:28:40.607Z,6.3
2022-11-16T06:29:49.263Z,5.7
2022-11-16T06:30:59.054Z,4.8
2022-11-16T06:32:08.754Z,5.6
2022-11-16T06:33:19.380Z,10
2022-11-16T06:34:28.025Z,5.6
2022-11-16T06:35:36.703Z,8.5
2022-11-16T06:36:46.390Z,6.2
2022-11-16T06:37:55.047Z,6.5
2022-11-16T06:39:04.744Z,6.5
2022-11-16T06:40:13.409Z,5.6
2022-11-16T06:41:22.068Z,7.1
2022-11-16T06:42:31.766Z,5.5
2022-11-16T06:43:40.463Z,6.6
2022-11-16T06:44:48.112Z,6.5
2022-11-16T06:45:57.789Z,5.7
2022-11-16T06:47:06.441Z,6.4
2022-11-16T06:48:16.513Z,7.2
2022-11-16T06:49:25.854Z,6.4
2022-11-16T06:50:33.517Z,7.7
2022-11-16T06:51:44.207Z,6.1
2022-11-16T06:52:53.887Z,5.2
2022-11-16T06:54:01.569Z,5.6
2022-11-16T06:55:11.253Z,5.8
2022-11-16T06:56:19.910Z,3.9
2022-11-16T06:57:29.589Z,4.9
2022-11-16T06:58:39.310Z,3
2022-11-16T06:59:46.945Z,3.3
2022-11-16T07:00:56.630Z,2.9
2022-11-16T07:02:06.354Z,3.5
2022-11-16T07:03:14.956Z,3.3
2022-11-16T07:04:24.667Z,5.2
2022-11-16T07:05:34.360Z,4.5
2022-11-16T07:06:43.144Z,4.8
2022-11-16T07:07:51.812Z,4
2022-11-16T07:09:00.533Z,3.3
2022-11-16T07:10:10.219Z,2.7
2022-11-16T07:11:19.033Z,4.9
2022-11-16T07:12:27.713Z,5.2
2022-11-16T07:13:37.383Z,2.9
2022-11-16T07:14:46.093Z,4.3
2022-11-16T07:15:55.763Z,9.3
2022-11-16T07:17:09.425Z,6.5
2022-11-16T07:18:15.084Z,5.9
2022-11-16T07:19:24.818Z,7
2022-11-16T07:20:34.844Z,6.3
2022-11-16T07:21:42.199Z,4.6
2022-11-16T07:22:51.904Z,6.5
2022-11-16T07:24:00.568Z,3.9
2022-11-16T07:25:11.246Z,5.6
2022-11-16T07:26:20.924Z,5
2022-11-16T07:27:28.582Z,5.3
2022-11-16T07:28:40.964Z,3.5
2022-11-16T07:29:47.944Z,3.4
2022-11-16T07:30:56.605Z,3.2
2022-11-16T07:32:06.291Z,4.7
2022-11-16T07:33:15.949Z,4.6
2022-11-16T07:34:24.630Z,4.3
2022-11-16T07:35:33.301Z,4.5
2022-11-16T07:36:43.097Z,5.2
2022-11-16T07:37:52.650Z,5.1
2022-11-16T07:39:02.360Z,3.5
2022-11-16T07:40:12.057Z,4.7
2022-11-16T07:41:21.754Z,4.9
2022-11-16T07:42:30.426Z,4.7
2022-11-16T07:43:39.088Z,3.7
2022-11-16T07:44:48.741Z,2.4
2022-11-16T07:46:14.013Z,3
2022-11-16T07:47:09.079Z,3.5
2022-11-16T07:48:17.754Z,2.2
2022-11-16T07:49:27.422Z,3.1
2022-11-16T07:50:36.078Z,2.9
2022-11-16T07:51:45.910Z,2.9
2022-11-16T07:52:55.443Z,2.9
2022-11-16T07:54:04.134Z,5
2022-11-16T07:55:12.779Z,3.4
2022-11-16T07:56:22.435Z,3.4
2022-11-16T07:57:30.122Z,3.9
2022-11-16T07:58:39.797Z,3.1
2022-11-16T07:59:47.449Z,3.7
2022-11-16T08:00:55.095Z,3.4
2022-11-16T08:02:04.848Z,4
2022-11-16T08:03:13.486Z,2.6
2022-11-16T08:04:23.151Z,4.4
2022-11-16T08:05:31.818Z,2.8
2022-11-16T08:06:39.482Z,3.5
2022-11-16T08:07:49.165Z,1.6
2022-11-16T08:08:59.213Z,2.8
2022-11-16T08:10:06.565Z,2.4
2022-11-16T08:11:16.217Z,1.8
2022-11-16T08:12:25.806Z,2
2022-11-16T08:13:34.468Z,1.6
2022-11-16T08:14:43.297Z,2.2
2022-11-16T08:15:50.952Z,2.2
2022-11-16T08:17:00.628Z,2.6
2022-11-16T08:18:09.284Z,2.5
2022-11-16T08:19:17.014Z,2.3
2022-11-16T08:20:26.710Z,1.8
2022-11-16T08:21:35.358Z,1.4
2022-11-16T08:22:44.027Z,2.2
2022-11-16T08:23:58.054Z,0.8
2022-11-16T08:25:02.364Z,1.1
2022-11-16T08:26:12.057Z,2.9
2022-11-16T08:27:21.741Z,2.5
2022-11-16T08:28:29.402Z,1.2
2022-11-16T08:29:39.064Z,2.4
2022-11-16T08:30:52.531Z,1.6
2022-11-16T08:31:58.593Z,2.3
2022-11-16T08:33:08.270Z,2.7
2022-11-16T08:34:16.999Z,1.2
2022-11-16T08:35:26.686Z,1.7
2022-11-16T08:36:35.340Z,1.7
2022-11-16T08:37:43.052Z,1.7
2022-11-16T08:38:52.728Z,1.8
2022-11-16T08:40:02.525Z,1.5
2022-11-16T08:41:12.145Z,0.7
2022-11-16T08:42:20.748Z,1.7
2022-11-16T08:43:28.432Z,1.1
2022-11-16T08:44:38.091Z,1.6
2022-11-16T08:45:46.857Z,1.8
2022-11-16T08:46:55.527Z,1.7
2022-11-16T08:48:05.170Z,1.8
2022-11-16T08:49:14.970Z,1.1
2022-11-16T08:50:24.664Z,1.6
2022-11-16T08:51:33.346Z,1.4
2022-11-16T08:52:41.007Z,1.9
2022-11-16T08:53:50.669Z,1.9
2022-11-16T08:54:59.519Z,2.7
2022-11-16T08:56:09.452Z,5.2
2022-11-16T08:57:19.036Z,2.5
2022-11-16T08:58:27.710Z,1.4
2022-11-16T08:59:36.394Z,1.6
2022-11-16T09:00:45.104Z,1.2
2022-11-16T09:01:53.809Z,2.3
2022-11-16T09:03:02.455Z,1.4
2022-11-16T09:04:12.113Z,1.4
2022-11-16T09:05:19.793Z,2.3
2022-11-16T09:06:29.488Z,0.7
2022-11-16T09:07:39.233Z,1
2022-11-16T09:08:47.895Z,0.8
2022-11-16T09:09:56.539Z,1.5
2022-11-16T09:11:04.189Z,1.7
2022-11-16T09:12:13.926Z,1.1
2022-11-16T09:13:23.566Z,2
2022-11-16T09:14:32.236Z,0.8
2022-11-16T09:15:41.912Z,2.6
2022-11-16T09:16:50.586Z,1
2022-11-16T09:17:59.306Z,1.6
2022-11-16T09:19:08.046Z,1.2
2022-11-16T09:20:16.779Z,1.1
2022-11-16T09:21:26.446Z,1.5
2022-11-16T09:22:35.150Z,1.2
2022-11-16T09:23:43.860Z,1.2
2022-11-16T09:24:53.522Z,1.2
2022-11-16T09:26:02.186Z,2.9
2022-11-16T09:27:10.848Z,1.1
2022-11-16T09:28:19.660Z,1.2
2022-11-16T09:29:27.218Z,1.2
2022-11-16T09:30:36.901Z,2.2
2022-11-16T09:31:45.567Z,1.7
2022-11-16T09:32:53.250Z,1.1
2022-11-16T09:34:02.954Z,1.5
2022-11-16T09:35:11.846Z,1
2022-11-16T09:36:21.559Z,1.1
2022-11-16T09:37:31.304Z,0.9
2022-11-16T09:39:10.393Z,2.3
2022-11-16T09:39:51.617Z,1.1
2022-11-16T09:41:01.312Z,1.5
2022-11-16T09:42:09.981Z,0.4
2022-11-16T09:43:17.635Z,0.6
2022-11-16T09:44:27.362Z,0.9
2022-11-16T09:45:37.025Z,1.3
2022-11-16T09:46:46.706Z,0.7
2022-11-16T09:47:55.372Z,1.8
2022-11-16T09:49:10.494Z,0.9
2022-11-16T09:50:14.719Z,0.9
2022-11-16T09:51:24.396Z,2.1
2022-11-16T09:52:33.089Z,0.8
2022-11-16T09:53:41.796Z,1.3
2022-11-16T09:54:51.485Z,1.9
2022-11-16T09:56:01.159Z,2
2022-11-16T09:57:12.510Z,0.4
2022-11-16T09:58:20.523Z,0.9
2022-11-16T09:59:30.343Z,1.2
2022-11-16T10:00:39.901Z,1.6
2022-11-16T10:01:49.554Z,1.1
2022-11-16T10:02:57.223Z,1.2
2022-11-16T10:04:06.931Z,0.9
2022-11-16T10:05:15.588Z,3.6
2022-11-16T10:06:24.255Z,1.8
2022-11-16T10:07:34.007Z,1.6
2022-11-16T10:08:43.617Z,1.5
2022-11-16T10:09:53.393Z,0.9
2022-11-16T10:11:03.105Z,0.4
2022-11-16T10:12:10.781Z,0.6
2022-11-16T10:13:19.453Z,1.1
2022-11-16T10:14:28.112Z,0.9
2022-11-16T10:15:37.939Z,1.1
2022-11-16T10:16:47.488Z,1.3
2022-11-16T10:17:57.182Z,0.8
2022-11-16T10:19:06.855Z,1.7
2022-11-16T10:20:15.522Z,0.8
2022-11-16T10:21:23.387Z,0.6
2022-11-16T10:22:33.067Z,1.6
2022-11-16T10:23:41.739Z,1.4
2022-11-16T10:24:50.477Z,0.5
2022-11-16T10:26:00.213Z,2.2
2022-11-16T10:27:09.874Z,0.8
2022-11-16T10:28:19.550Z,0.4
2022-11-16T10:29:28.224Z,1.4
2022-11-16T10:30:36.888Z,1.2
2022-11-16T10:31:46.685Z,0.6
2022-11-16T10:32:55.251Z,2.5
2022-11-16T10:34:05.010Z,2.8
2022-11-16T10:35:13.689Z,1
2022-11-16T10:36:21.349Z,1.4
2022-11-16T10:37:31.028Z,1.5
2022-11-16T10:38:40.839Z,0.4
2022-11-16T10:39:49.493Z,2.2
2022-11-16T10:40:59.164Z,0.6
2022-11-16T10:42:08.800Z,0.3
2022-11-16T10:43:17.519Z,0.6
2022-11-16T10:44:26.211Z,2.1
2022-11-16T10:45:34.892Z,2
2022-11-16T10:46:44.624Z,0.8
2022-11-16T10:47:53.291Z,2
2022-11-16T10:49:01.947Z,0.8
2022-11-16T10:50:11.642Z,1
2022-11-16T10:51:20.318Z,2.4
2022-11-16T10:52:30.008Z,0.5
2022-11-16T10:53:37.871Z,0.5
2022-11-16T10:54:47.332Z,2.9
2022-11-16T10:55:57.075Z,1
2022-11-16T10:57:05.813Z,1
2022-11-16T10:58:15.486Z,1.6
2022-11-16T10:59:25.164Z,0.8
2022-11-16T11:00:33.938Z,0.6
2022-11-16T11:01:42.564Z,1.5
2022-11-16T11:02:52.225Z,1.7
2022-11-16T11:04:01.932Z,1.1
2022-11-16T11:05:11.620Z,0.6
2022-11-16T11:06:21.377Z,1.7
2022-11-16T11:07:31.179Z,0.8
2022-11-16T11:08:40.754Z,1.1
2022-11-16T11:09:49.433Z,1.2
2022-11-16T11:10:58.105Z,1
2022-11-16T11:12:06.777Z,0.8
2022-11-16T11:13:15.479Z,1.3
2022-11-16T11:14:25.162Z,0.9
2022-11-16T11:15:33.824Z,1.5
2022-11-16T11:16:42.501Z,1.9
2022-11-16T11:17:52.174Z,0.8
2022-11-16T11:19:00.843Z,3.8
2022-11-16T11:20:10.688Z,1.1
2022-11-16T11:21:20.255Z,0.8
2022-11-16T11:22:27.973Z,1.8
2022-11-16T11:23:38.642Z,1.7
2022-11-16T11:24:47.423Z,1.2
2022-11-16T11:25:55.091Z,1.1
2022-11-16T11:27:04.777Z,1
2022-11-16T11:28:13.442Z,0.7
2022-11-16T11:29:22.165Z,1.6
2022-11-16T11:30:31.870Z,0.7
2022-11-16T11:31:40.555Z,1.2
2022-11-16T11:32:50.225Z,1
2022-11-16T11:33:58.894Z,1
2022-11-16T11:35:06.583Z,1
2022-11-16T11:36:16.282Z,5.5
2022-11-16T11:37:24.963Z,0.7
2022-11-16T11:38:33.590Z,1.3
2022-11-16T11:39:42.325Z,1.2
2022-11-16T11:40:51.930Z,2.2
2022-11-16T11:42:01.637Z,1.5
2022-11-16T11:43:09.289Z,1.4
2022-11-16T11:44:19.993Z,0.8
2022-11-16T11:45:28.654Z,0.9
2022-11-16T11:47:18.568Z,0.8
2022-11-16T11:47:58.375Z,1.4
2022-11-16T11:48:58.647Z,1
2022-11-16T11:50:07.329Z,1.2
2022-11-16T11:51:15.992Z,1.5
2022-11-16T11:52:25.723Z,0.6
2022-11-16T11:53:35.888Z,2
2022-11-16T11:54:45.961Z,1
2022-11-16T11:55:51.769Z,2.1
2022-11-16T11:57:01.497Z,1.5
2022-11-16T11:58:10.201Z,1.4
2022-11-16T11:59:19.878Z,1.2
2022-11-16T12:00:28.542Z,1
2022-11-16T12:01:36.201Z,1.7
2022-11-16T12:02:45.891Z,1.9
2022-11-16T12:03:54.560Z,1.7
2022-11-16T12:05:01.248Z,1.2
2022-11-16T12:06:10.915Z,2.3
2022-11-16T12:07:20.637Z,1.6
2022-11-16T12:08:30.430Z,1
2022-11-16T12:09:39.965Z,1.6
2022-11-16T12:10:48.657Z,1
2022-11-16T12:11:58.352Z,1.2
2022-11-16T12:13:08.092Z,1.6
2022-11-16T12:14:14.738Z,1.7
2022-11-16T12:15:24.417Z,1.2
2022-11-16T12:16:33.094Z,1.7
2022-11-16T12:17:42.774Z,1.4
2022-11-16T12:18:52.433Z,0.8
2022-11-16T12:20:00.094Z,0.6
2022-11-16T12:21:09.756Z,2.2
2022-11-16T12:22:18.561Z,0.6
2022-11-16T12:23:26.225Z,1.4
2022-11-16T12:24:35.928Z,0.6
2022-11-16T12:25:45.565Z,1
2022-11-16T12:26:54.220Z,1
2022-11-16T12:28:03.017Z,0.6
2022-11-16T12:29:11.692Z,0.7
2022-11-16T12:30:21.378Z,1.5
2022-11-16T12:31:30.036Z,1.2
2022-11-16T12:32:37.699Z,0.7
2022-11-16T12:33:47.425Z,2.2
2022-11-16T12:34:56.090Z,0.6
2022-11-16T12:36:04.761Z,0.7
2022-11-16T12:37:13.420Z,1.4
2022-11-16T12:38:26.172Z,1.4
2022-11-16T12:39:33.740Z,1.3
2022-11-16T12:40:42.513Z,1.5
2022-11-16T12:41:50.053Z,0.6
2022-11-16T12:42:59.730Z,1
2022-11-16T12:44:08.394Z,1.8
2022-11-16T12:45:17.212Z,0.8
2022-11-16T12:46:25.881Z,0.9
2022-11-16T12:47:33.535Z,1.3
2022-11-16T12:48:42.227Z,1
2022-11-16T12:49:50.967Z,0.7
2022-11-16T12:50:58.649Z,2
2022-11-16T12:52:09.336Z,1.4
2022-11-16T12:53:18.028Z,0.8
2022-11-16T12:54:27.701Z,1.3
2022-11-16T12:55:36.428Z,1.1
2022-11-16T12:56:49.038Z,2
2022-11-16T12:57:56.750Z,1.9
2022-11-16T12:59:05.413Z,1.4
2022-11-16T13:00:15.076Z,3.7
2022-11-16T13:01:24.782Z,1.1
2022-11-16T13:02:34.466Z,1.2
2022-11-16T13:03:44.153Z,0.9
2022-11-16T13:04:52.820Z,1.4
2022-11-16T13:06:00.474Z,1.9
2022-11-16T13:07:11.288Z,1
2022-11-16T13:08:19.877Z,0.5
2022-11-16T13:09:28.566Z,1
2022-11-16T13:10:38.255Z,0.9
2022-11-16T13:11:47.935Z,0.6
2022-11-16T13:13:15.330Z,1
2022-11-16T13:14:09.259Z,0.7
2022-11-16T13:15:17.925Z,1.4
2022-11-16T13:16:27.617Z,1
2022-11-16T13:17:36.278Z,1.3
2022-11-16T13:18:44.933Z,0.8
2022-11-16T13:19:54.636Z,1.7
2022-11-16T13:21:03.316Z,0.5
2022-11-16T13:22:12.009Z,0.8
2022-11-16T13:23:19.662Z,0.8
2022-11-16T13:24:29.352Z,1.5
2022-11-16T13:25:39.073Z,2.1
2022-11-16T13:26:47.731Z,0.9
2022-11-16T13:27:56.418Z,0.7
2022-11-16T13:29:06.223Z,2.7
2022-11-16T13:30:15.785Z,1
2022-11-16T13:31:24.624Z,1.2
2022-11-16T13:32:33.316Z,1.3
2022-11-16T13:33:43.036Z,0.5
2022-11-16T13:34:51.689Z,1.1
2022-11-16T13:36:00.382Z,1.5
2022-11-16T13:37:09.107Z,0.7
2022-11-16T13:38:18.783Z,0.5
2022-11-16T13:39:28.524Z,0.8
2022-11-16T13:40:38.231Z,1.2
2022-11-16T13:41:47.917Z,0.9
2022-11-16T13:42:57.605Z,1.6
2022-11-16T13:44:06.303Z,0.5
2022-11-16T13:45:16.111Z,0.6
2022-11-16T13:46:53.923Z,0.9
2022-11-16T13:47:36.340Z,0.8
2022-11-16T13:48:45.173Z,0.5
2022-11-16T13:49:54.864Z,0.5
2022-11-16T13:51:03.538Z,0.5
2022-11-16T13:52:23.524Z,0.4
2022-11-16T13:54:44.966Z,1.5
2022-11-16T13:55:46.167Z,0.9
2022-11-16T13:56:54.840Z,4
2022-11-16T13:58:03.488Z,0.6
2022-11-16T13:59:13.164Z,1.1
2022-11-16T14:00:23.242Z,0.5
2022-11-16T14:01:31.561Z,0.9
2022-11-16T14:02:40.184Z,0.8
2022-11-16T14:03:47.845Z,0.8
2022-11-16T14:04:57.510Z,0.7
2022-11-16T14:06:05.183Z,0.7
2022-11-16T14:07:12.878Z,0.9
2022-11-16T14:08:22.509Z,0.8
2022-11-16T14:09:33.214Z,0.9
2022-11-16T14:10:40.842Z,0.6
2022-11-16T14:11:49.527Z,0.5
2022-11-16T14:12:57.191Z,0.4
2022-11-16T14:14:06.881Z,0.5
2022-11-16T14:15:15.544Z,0.5
2022-11-16T14:16:25.252Z,3
2022-11-16T14:17:34.914Z,0.7
2022-11-16T14:18:44.587Z,2.7
2022-11-16T14:19:53.261Z,0.6
2022-11-16T14:21:01.930Z,1
2022-11-16T14:22:10.615Z,1.1
2022-11-16T14:23:20.337Z,0.3
2022-11-16T14:24:28.999Z,0.6
2022-11-16T14:25:36.666Z,0.8
2022-11-16T14:26:46.345Z,0.7
2022-11-16T14:27:56.014Z,2.6
2022-11-16T14:29:05.711Z,0.5
2022-11-16T14:30:14.374Z,0.6
2022-11-16T14:31:23.033Z,0.6
2022-11-16T14:32:33.169Z,0.6
2022-11-16T14:33:43.394Z,0.8
2022-11-16T14:34:52.202Z,1.4
2022-11-16T14:36:01.863Z,1.8
2022-11-16T14:37:10.539Z,0.9
2022-11-16T14:38:19.192Z,5
2022-11-16T14:39:29.850Z,2.2
2022-11-16T14:40:38.570Z,1.8
2022-11-16T14:41:48.306Z,2.1
2022-11-16T14:44:06.610Z,1
2022-11-16T14:45:17.273Z,1.5
2022-11-16T14:46:25.967Z,2
2022-11-16T14:47:35.627Z,1.8
2022-11-16T14:48:44.443Z,1.8
2022-11-16T14:49:51.960Z,2.7
2022-11-16T14:51:01.619Z,2.2
2022-11-16T14:52:10.399Z,2.4
2022-11-16T14:53:18.055Z,1.4
2022-11-16T14:54:27.775Z,2.3
2022-11-16T14:55:37.475Z,1.8
2022-11-16T14:56:47.165Z,3.1
2022-11-16T14:57:55.914Z,3.3
2022-11-16T14:59:03.568Z,2.6
2022-11-16T15:00:13.234Z,2.6
2022-11-16T15:01:21.886Z,1.7
2022-11-16T15:02:30.560Z,1.9
2022-11-16T15:03:40.392Z,2.4
2022-11-16T15:04:49.147Z,1.5
2022-11-16T15:05:57.690Z,2
2022-11-16T15:07:07.414Z,1.6
2022-11-16T15:08:16.044Z,1.2
2022-11-16T15:09:25.747Z,1.9
2022-11-16T15:10:34.411Z,2.8
2022-11-16T15:11:44.410Z,1.9
2022-11-16T15:12:54.171Z,2.7
2022-11-16T15:14:02.864Z,4
2022-11-16T15:15:13.535Z,2
2022-11-16T15:16:23.196Z,2.9
2022-11-16T15:17:33.477Z,1.9
2022-11-16T15:18:42.522Z,2.4
2022-11-16T15:19:51.368Z,2.1
2022-11-16T15:21:00.902Z,2.5
2022-11-16T15:22:10.573Z,5.6
2022-11-16T15:23:20.279Z,2.1
2022-11-16T15:24:31.653Z,1.4
2022-11-16T15:25:39.656Z,3.1
2022-11-16T15:26:47.347Z,1.4
2022-11-16T15:27:57.012Z,2.8
2022-11-16T15:29:06.716Z,1.5
2022-11-16T15:30:16.384Z,3
2022-11-16T15:31:26.040Z,1.5
2022-11-16T15:32:35.722Z,1.4
2022-11-16T15:33:44.388Z,2.5
2022-11-16T15:34:53.068Z,1.5
2022-11-16T15:36:00.844Z,2.4
2022-11-16T15:37:10.403Z,1.7
2022-11-16T15:38:19.123Z,1.9
2022-11-16T15:39:28.784Z,2.4
2022-11-16T15:40:37.441Z,2.2
2022-11-16T15:41:45.109Z,1.7
2022-11-16T15:42:54.800Z,4.9
2022-11-16T15:44:17.083Z,2.8
2022-11-16T15:45:15.908Z,1.3
2022-11-16T15:46:23.744Z,3.9
2022-11-16T15:47:33.439Z,1.9
2022-11-16T15:48:43.106Z,1
2022-11-16T15:49:51.846Z,2
2022-11-16T15:51:04.405Z,2
2022-11-16T15:52:12.265Z,1.5
2022-11-16T15:53:21.811Z,0.9
2022-11-16T15:54:30.482Z,4.4
2022-11-16T15:55:39.221Z,2.1
2022-11-16T15:56:46.853Z,2.1
2022-11-16T15:57:56.524Z,2.1
2022-11-16T15:59:06.186Z,2.2
2022-11-16T16:00:13.857Z,3.2
2022-11-16T16:01:23.627Z,2.5